Terminal Aerodrome Forecast
Issued by NWS

Current Version | Previous Version | Graphics & Text | Print | Product List | Glossary On
Versions: 1 2 3 4 5 6 7 8 9 10 11 12 13 14 15 16 17 18 19
000
FTUS41 KILN 190354 AAB
TAFLCK
TAF AMD
KLCK 190354Z 1904/1924 31019G34KT P6SM VCSH OVC014
      TEMPO 1904/1908 5SM -DZ BR OVC009
     FM190800 30015G28KT P6SM OVC018
     FM191500 30014G24KT P6SM OVC026
     FM192300 29012KT P6SM BKN035=

USA.gov is the U.S. government's official web portal to all federal, state and local government web resources and services.